sensor_id;sensor_type;location;lat;lon;timestamp;temperature;humidity
39371;DHT22;25099;51.946;4.838;2022-12-29T00:01:16;11.30;99.90
39371;DHT22;25099;51.946;4.838;2022-12-29T00:03:45;11.20;99.90
39371;DHT22;25099;51.946;4.838;2022-12-29T00:06:11;11.30;99.90
39371;DHT22;25099;51.946;4.838;2022-12-29T00:08:36;11.30;99.90
39371;DHT22;25099;51.946;4.838;2022-12-29T00:13:32;11.30;99.90
39371;DHT22;25099;51.946;4.838;2022-12-29T00:16:16;11.30;99.90
39371;DHT22;25099;51.946;4.838;2022-12-29T00:18:42;11.30;99.90
39371;DHT22;25099;51.946;4.838;2022-12-29T00:21:15;11.40;99.90
39371;DHT22;25099;51.946;4.838;2022-12-29T00:24:00;11.40;99.90
39371;DHT22;25099;51.946;4.838;2022-12-29T00:26:45;11.40;99.90
39371;DHT22;25099;51.946;4.838;2022-12-29T00:29:30;11.50;99.90
39371;DHT22;25099;51.946;4.838;2022-12-29T00:32:14;11.40;99.90
39371;DHT22;25099;51.946;4.838;2022-12-29T00:34:58;11.50;99.90
39371;DHT22;25099;51.946;4.838;2022-12-29T00:37:46;11.50;99.90
39371;DHT22;25099;51.946;4.838;2022-12-29T00:40:31;11.40;99.90
39371;DHT22;25099;51.946;4.838;2022-12-29T00:43:15;11.40;99.90
39371;DHT22;25099;51.946;4.838;2022-12-29T00:45:59;11.50;99.90
39371;DHT22;25099;51.946;4.838;2022-12-29T00:48:25;11.50;99.90
39371;DHT22;25099;51.946;4.838;2022-12-29T00:51:09;11.60;99.90
39371;DHT22;25099;51.946;4.838;2022-12-29T00:53:35;11.60;99.90
39371;DHT22;25099;51.946;4.838;2022-12-29T00:56:00;11.60;99.90
39371;DHT22;25099;51.946;4.838;2022-12-29T00:58:30;11.60;99.90
39371;DHT22;25099;51.946;4.838;2022-12-29T01:01:07;11.60;99.90
39371;DHT22;25099;51.946;4.838;2022-12-29T01:03:36;11.60;99.90
39371;DHT22;25099;51.946;4.838;2022-12-29T01:06:04;11.50;99.90
39371;DHT22;25099;51.946;4.838;2022-12-29T01:08:30;11.50;99.90
39371;DHT22;25099;51.946;4.838;2022-12-29T01:11:07;11.40;99.90
39371;DHT22;25099;51.946;4.838;2022-12-29T01:13:33;11.30;99.90
39371;DHT22;25099;51.946;4.838;2022-12-29T01:15:59;11.30;99.90
39371;DHT22;25099;51.946;4.838;2022-12-29T01:18:26;11.20;99.90
39371;DHT22;25099;51.946;4.838;2022-12-29T01:20:58;11.20;99.90
39371;DHT22;25099;51.946;4.838;2022-12-29T01:23:24;11.20;99.90
39371;DHT22;25099;51.946;4.838;2022-12-29T01:25:50;11.20;99.90
39371;DHT22;25099;51.946;4.838;2022-12-29T01:28:15;11.20;99.90
39371;DHT22;25099;51.946;4.838;2022-12-29T01:30:41;11.20;99.90
39371;DHT22;25099;51.946;4.838;2022-12-29T01:33:06;11.20;99.90
39371;DHT22;25099;51.946;4.838;2022-12-29T01:35:32;11.10;99.90
39371;DHT22;25099;51.946;4.838;2022-12-29T01:37:58;11.20;99.90
39371;DHT22;25099;51.946;4.838;2022-12-29T01:40:24;11.20;99.90
39371;DHT22;25099;51.946;4.838;2022-12-29T01:42:49;11.10;99.90
39371;DHT22;25099;51.946;4.838;2022-12-29T01:45:16;11.10;99.90
39371;DHT22;25099;51.946;4.838;2022-12-29T01:47:54;11.10;99.90
39371;DHT22;25099;51.946;4.838;2022-12-29T01:53:10;11.10;99.90
39371;DHT22;25099;51.946;4.838;2022-12-29T01:55:44;11.20;99.90
39371;DHT22;25099;51.946;4.838;2022-12-29T01:58:13;11.20;99.90
39371;DHT22;25099;51.946;4.838;2022-12-29T02:00:40;11.20;99.90
39371;DHT22;25099;51.946;4.838;2022-12-29T02:03:06;11.20;99.90
39371;DHT22;25099;51.946;4.838;2022-12-29T02:08:13;11.20;99.90
39371;DHT22;25099;51.946;4.838;2022-12-29T02:10:39;11.10;99.90
39371;DHT22;25099;51.946;4.838;2022-12-29T02:13:06;11.10;99.90
39371;DHT22;25099;51.946;4.838;2022-12-29T02:29:40;11.20;99.90
39371;DHT22;25099;51.946;4.838;2022-12-29T02:32:29;11.20;99.90
39371;DHT22;25099;51.946;4.838;2022-12-29T02:37:46;11.10;99.90
39371;DHT22;25099;51.946;4.838;2022-12-29T02:43:11;11.10;99.90
39371;DHT22;25099;51.946;4.838;2022-12-29T02:45:58;11.00;99.90
39371;DHT22;25099;51.946;4.838;2022-12-29T02:48:40;11.00;99.90
39371;DHT22;25099;51.946;4.838;2022-12-29T02:51:13;11.00;99.90
39371;DHT22;25099;51.946;4.838;2022-12-29T02:53:40;10.90;99.90
39371;DHT22;25099;51.946;4.838;2022-12-29T02:56:25;10.90;99.90
39371;DHT22;25099;51.946;4.838;2022-12-29T02:58:51;10.80;99.90
39371;DHT22;25099;51.946;4.838;2022-12-29T03:06:37;10.90;99.90
39371;DHT22;25099;51.946;4.838;2022-12-29T03:09:19;10.80;99.90
39371;DHT22;25099;51.946;4.838;2022-12-29T03:12:15;10.80;99.90
39371;DHT22;25099;51.946;4.838;2022-12-29T03:17:58;10.80;99.90
39371;DHT22;25099;51.946;4.838;2022-12-29T03:20:29;10.80;99.90
39371;DHT22;25099;51.946;4.838;2022-12-29T03:22:59;10.80;99.90
39371;DHT22;25099;51.946;4.838;2022-12-29T03:25:36;10.80;99.90
39371;DHT22;25099;51.946;4.838;2022-12-29T03:28:08;10.70;99.90
39371;DHT22;25099;51.946;4.838;2022-12-29T03:30:36;10.70;99.90
39371;DHT22;25099;51.946;4.838;2022-12-29T03:33:06;10.60;99.90
39371;DHT22;25099;51.946;4.838;2022-12-29T03:35:35;10.50;99.90
39371;DHT22;25099;51.946;4.838;2022-12-29T03:38:23;10.40;99.90
39371;DHT22;25099;51.946;4.838;2022-12-29T03:40:53;10.40;99.90
39371;DHT22;25099;51.946;4.838;2022-12-29T03:43:21;10.40;99.90
39371;DHT22;25099;51.946;4.838;2022-12-29T03:45:47;10.20;99.90
39371;DHT22;25099;51.946;4.838;2022-12-29T03:48:12;10.10;99.90
39371;DHT22;25099;51.946;4.838;2022-12-29T03:50:38;10.10;99.90
39371;DHT22;25099;51.946;4.838;2022-12-29T03:53:03;10.10;99.90
39371;DHT22;25099;51.946;4.838;2022-12-29T03:55:29;10.20;99.90
39371;DHT22;25099;51.946;4.838;2022-12-29T03:57:55;10.20;99.90
39371;DHT22;25099;51.946;4.838;2022-12-29T04:00:20;10.20;99.90
39371;DHT22;25099;51.946;4.838;2022-12-29T04:02:46;10.30;99.90
39371;DHT22;25099;51.946;4.838;2022-12-29T04:05:12;10.40;99.90
39371;DHT22;25099;51.946;4.838;2022-12-29T04:07:38;10.40;99.90
39371;DHT22;25099;51.946;4.838;2022-12-29T04:10:03;10.50;99.90
39371;DHT22;25099;51.946;4.838;2022-12-29T04:12:29;10.60;99.90
39371;DHT22;25099;51.946;4.838;2022-12-29T04:14:55;10.60;99.90
39371;DHT22;25099;51.946;4.838;2022-12-29T04:17:20;10.60;99.90
39371;DHT22;25099;51.946;4.838;2022-12-29T04:19:46;10.60;99.90
39371;DHT22;25099;51.946;4.838;2022-12-29T04:22:11;10.70;99.90
39371;DHT22;25099;51.946;4.838;2022-12-29T04:24:37;10.70;99.90
39371;DHT22;25099;51.946;4.838;2022-12-29T04:27:03;10.70;99.90
39371;DHT22;25099;51.946;4.838;2022-12-29T04:29:28;10.80;99.90
39371;DHT22;25099;51.946;4.838;2022-12-29T04:31:54;10.70;99.90
39371;DHT22;25099;51.946;4.838;2022-12-29T04:34:20;10.60;99.90
39371;DHT22;25099;51.946;4.838;2022-12-29T04:36:45;10.50;99.90
39371;DHT22;25099;51.946;4.838;2022-12-29T04:39:11;10.50;99.90
39371;DHT22;25099;51.946;4.838;2022-12-29T04:41:36;10.30;99.90
39371;DHT22;25099;51.946;4.838;2022-12-29T04:44:02;10.20;99.90
39371;DHT22;25099;51.946;4.838;2022-12-29T04:46:27;10.20;99.90
39371;DHT22;25099;51.946;4.838;2022-12-29T04:48:53;10.10;99.90
39371;DHT22;25099;51.946;4.838;2022-12-29T04:51:19;10.10;99.90
39371;DHT22;25099;51.946;4.838;2022-12-29T04:53:44;10.10;99.90
39371;DHT22;25099;51.946;4.838;2022-12-29T04:56:10;10.10;99.90
39371;DHT22;25099;51.946;4.838;2022-12-29T04:58:36;10.20;99.90
39371;DHT22;25099;51.946;4.838;2022-12-29T05:01:02;10.10;99.90
39371;DHT22;25099;51.946;4.838;2022-12-29T05:03:27;10.10;99.90
39371;DHT22;25099;51.946;4.838;2022-12-29T05:05:54;10.20;99.90
39371;DHT22;25099;51.946;4.838;2022-12-29T05:08:21;11.10;99.90
39371;DHT22;25099;51.946;4.838;2022-12-29T05:10:47;10.20;99.90
39371;DHT22;25099;51.946;4.838;2022-12-29T05:13:12;10.30;99.90
39371;DHT22;25099;51.946;4.838;2022-12-29T05:15:38;10.50;99.90
39371;DHT22;25099;51.946;4.838;2022-12-29T05:18:04;10.30;99.90
39371;DHT22;25099;51.946;4.838;2022-12-29T05:20:29;10.30;99.90
39371;DHT22;25099;51.946;4.838;2022-12-29T05:22:55;10.30;99.90
39371;DHT22;25099;51.946;4.838;2022-12-29T05:25:20;10.30;99.90
39371;DHT22;25099;51.946;4.838;2022-12-29T05:27:46;10.40;99.90
39371;DHT22;25099;51.946;4.838;2022-12-29T05:30:12;10.40;99.90
39371;DHT22;25099;51.946;4.838;2022-12-29T05:32:37;10.40;99.90
39371;DHT22;25099;51.946;4.838;2022-12-29T05:35:03;10.50;99.90
39371;DHT22;25099;51.946;4.838;2022-12-29T05:37:29;10.50;99.90
39371;DHT22;25099;51.946;4.838;2022-12-29T05:39:54;10.50;99.90
39371;DHT22;25099;51.946;4.838;2022-12-29T05:42:20;10.50;99.90
39371;DHT22;25099;51.946;4.838;2022-12-29T05:44:46;10.50;99.90
39371;DHT22;25099;51.946;4.838;2022-12-29T05:47:11;10.60;99.90
39371;DHT22;25099;51.946;4.838;2022-12-29T05:49:37;10.50;99.90
39371;DHT22;25099;51.946;4.838;2022-12-29T05:52:03;10.60;99.90
39371;DHT22;25099;51.946;4.838;2022-12-29T05:54:28;10.50;99.90
39371;DHT22;25099;51.946;4.838;2022-12-29T05:56:54;10.50;99.90
39371;DHT22;25099;51.946;4.838;2022-12-29T05:59:19;10.40;99.90
39371;DHT22;25099;51.946;4.838;2022-12-29T06:01:45;10.50;99.90
39371;DHT22;25099;51.946;4.838;2022-12-29T06:04:10;10.40;99.90
39371;DHT22;25099;51.946;4.838;2022-12-29T06:06:36;10.40;99.90
39371;DHT22;25099;51.946;4.838;2022-12-29T06:09:02;10.50;99.90
39371;DHT22;25099;51.946;4.838;2022-12-29T06:11:27;10.50;99.90
39371;DHT22;25099;51.946;4.838;2022-12-29T06:13:53;10.50;99.90
39371;DHT22;25099;51.946;4.838;2022-12-29T06:16:18;10.50;99.90
39371;DHT22;25099;51.946;4.838;2022-12-29T06:18:44;10.40;99.90
39371;DHT22;25099;51.946;4.838;2022-12-29T06:21:10;10.40;99.90
39371;DHT22;25099;51.946;4.838;2022-12-29T06:23:35;10.30;99.90
39371;DHT22;25099;51.946;4.838;2022-12-29T06:26:01;10.40;99.90
39371;DHT22;25099;51.946;4.838;2022-12-29T06:28:27;10.30;99.90
39371;DHT22;25099;51.946;4.838;2022-12-29T06:30:52;10.30;99.90
39371;DHT22;25099;51.946;4.838;2022-12-29T06:33:18;10.30;99.90
39371;DHT22;25099;51.946;4.838;2022-12-29T06:35:43;10.30;99.90
39371;DHT22;25099;51.946;4.838;2022-12-29T06:38:11;10.20;99.90
39371;DHT22;25099;51.946;4.838;2022-12-29T06:40:36;10.20;99.90
39371;DHT22;25099;51.946;4.838;2022-12-29T06:43:02;10.20;99.90
39371;DHT22;25099;51.946;4.838;2022-12-29T06:45:28;10.20;99.90
39371;DHT22;25099;51.946;4.838;2022-12-29T06:47:53;10.10;99.90
39371;DHT22;25099;51.946;4.838;2022-12-29T06:50:19;10.00;99.90
39371;DHT22;25099;51.946;4.838;2022-12-29T06:52:44;9.90;99.90
39371;DHT22;25099;51.946;4.838;2022-12-29T06:55:10;9.80;99.90
39371;DHT22;25099;51.946;4.838;2022-12-29T06:57:35;9.70;99.90
39371;DHT22;25099;51.946;4.838;2022-12-29T07:00:02;9.60;99.90
39371;DHT22;25099;51.946;4.838;2022-12-29T07:02:28;9.50;99.90
39371;DHT22;25099;51.946;4.838;2022-12-29T07:04:53;9.40;99.90
39371;DHT22;25099;51.946;4.838;2022-12-29T07:07:20;9.30;99.90
39371;DHT22;25099;51.946;4.838;2022-12-29T07:09:46;9.30;99.90
39371;DHT22;25099;51.946;4.838;2022-12-29T07:12:12;9.20;99.90
39371;DHT22;25099;51.946;4.838;2022-12-29T07:14:37;9.20;99.90
39371;DHT22;25099;51.946;4.838;2022-12-29T07:17:03;9.20;99.90
39371;DHT22;25099;51.946;4.838;2022-12-29T07:19:32;9.30;99.90
39371;DHT22;25099;51.946;4.838;2022-12-29T07:21:58;9.30;99.90
39371;DHT22;25099;51.946;4.838;2022-12-29T07:24:23;9.40;99.90
39371;DHT22;25099;51.946;4.838;2022-12-29T07:26:51;9.40;99.90
39371;DHT22;25099;51.946;4.838;2022-12-29T07:29:17;9.40;99.90
39371;DHT22;25099;51.946;4.838;2022-12-29T07:31:43;9.40;99.90
39371;DHT22;25099;51.946;4.838;2022-12-29T07:34:09;9.40;99.90
39371;DHT22;25099;51.946;4.838;2022-12-29T07:36:34;9.50;99.90
39371;DHT22;25099;51.946;4.838;2022-12-29T07:39:00;9.50;99.90
39371;DHT22;25099;51.946;4.838;2022-12-29T07:41:25;9.60;99.90
39371;DHT22;25099;51.946;4.838;2022-12-29T07:43:51;9.60;99.90
39371;DHT22;25099;51.946;4.838;2022-12-29T07:46:16;9.60;99.90
39371;DHT22;25099;51.946;4.838;2022-12-29T07:48:42;9.60;99.90
39371;DHT22;25099;51.946;4.838;2022-12-29T07:51:08;9.60;99.90
39371;DHT22;25099;51.946;4.838;2022-12-29T07:53:33;9.60;99.90
39371;DHT22;25099;51.946;4.838;2022-12-29T07:56:00;9.70;99.90
39371;DHT22;25099;51.946;4.838;2022-12-29T07:58:25;9.70;99.90
39371;DHT22;25099;51.946;4.838;2022-12-29T08:00:56;9.80;99.90
39371;DHT22;25099;51.946;4.838;2022-12-29T08:03:22;9.90;99.90
39371;DHT22;25099;51.946;4.838;2022-12-29T08:05:48;9.90;99.90
39371;DHT22;25099;51.946;4.838;2022-12-29T08:08:14;10.00;99.90
39371;DHT22;25099;51.946;4.838;2022-12-29T08:10:39;10.00;99.90
39371;DHT22;25099;51.946;4.838;2022-12-29T08:13:05;10.00;99.90
39371;DHT22;25099;51.946;4.838;2022-12-29T08:15:31;10.00;99.90
39371;DHT22;25099;51.946;4.838;2022-12-29T08:17:57;10.00;99.90
39371;DHT22;25099;51.946;4.838;2022-12-29T08:20:22;10.00;99.90
39371;DHT22;25099;51.946;4.838;2022-12-29T08:22:48;10.00;99.90
39371;DHT22;25099;51.946;4.838;2022-12-29T08:25:13;10.10;99.90
39371;DHT22;25099;51.946;4.838;2022-12-29T08:27:39;10.10;99.90
39371;DHT22;25099;51.946;4.838;2022-12-29T08:30:05;10.10;99.90
39371;DHT22;25099;51.946;4.838;2022-12-29T08:32:31;10.10;99.90
39371;DHT22;25099;51.946;4.838;2022-12-29T08:34:57;10.20;99.90
39371;DHT22;25099;51.946;4.838;2022-12-29T08:37:22;10.10;99.90
39371;DHT22;25099;51.946;4.838;2022-12-29T08:39:48;10.10;99.90
39371;DHT22;25099;51.946;4.838;2022-12-29T08:42:14;10.10;99.90
39371;DHT22;25099;51.946;4.838;2022-12-29T08:44:40;10.10;99.90
39371;DHT22;25099;51.946;4.838;2022-12-29T08:47:06;10.10;99.90
39371;DHT22;25099;51.946;4.838;2022-12-29T08:49:32;10.10;99.90
39371;DHT22;25099;51.946;4.838;2022-12-29T08:51:59;10.10;99.90
39371;DHT22;25099;51.946;4.838;2022-12-29T08:54:24;10.10;99.90
39371;DHT22;25099;51.946;4.838;2022-12-29T08:56:50;10.00;99.90
39371;DHT22;25099;51.946;4.838;2022-12-29T08:59:16;10.00;99.90
39371;DHT22;25099;51.946;4.838;2022-12-29T09:01:41;10.00;99.90
39371;DHT22;25099;51.946;4.838;2022-12-29T09:04:07;10.00;99.90
39371;DHT22;25099;51.946;4.838;2022-12-29T09:06:34;10.00;99.90
39371;DHT22;25099;51.946;4.838;2022-12-29T09:09:00;10.00;99.90
39371;DHT22;25099;51.946;4.838;2022-12-29T09:11:26;9.90;99.90
39371;DHT22;25099;51.946;4.838;2022-12-29T09:13:52;9.90;99.90
39371;DHT22;25099;51.946;4.838;2022-12-29T09:16:21;9.90;99.90
39371;DHT22;25099;51.946;4.838;2022-12-29T09:18:47;9.90;99.90
39371;DHT22;25099;51.946;4.838;2022-12-29T09:21:13;10.10;99.90
39371;DHT22;25099;51.946;4.838;2022-12-29T09:23:39;9.80;99.90
39371;DHT22;25099;51.946;4.838;2022-12-29T09:26:05;9.80;99.90
39371;DHT22;25099;51.946;4.838;2022-12-29T09:28:34;9.80;99.90
39371;DHT22;25099;51.946;4.838;2022-12-29T09:31:00;9.70;99.90
39371;DHT22;25099;51.946;4.838;2022-12-29T09:33:25;9.70;99.90
39371;DHT22;25099;51.946;4.838;2022-12-29T09:35:53;9.70;99.90
39371;DHT22;25099;51.946;4.838;2022-12-29T09:38:19;9.80;99.90
39371;DHT22;25099;51.946;4.838;2022-12-29T09:40:50;9.80;99.90
39371;DHT22;25099;51.946;4.838;2022-12-29T09:49:15;9.80;99.90
39371;DHT22;25099;51.946;4.838;2022-12-29T09:51:43;9.90;99.90
39371;DHT22;25099;51.946;4.838;2022-12-29T09:54:20;9.90;99.90
39371;DHT22;25099;51.946;4.838;2022-12-29T09:56:49;9.90;99.90
39371;DHT22;25099;51.946;4.838;2022-12-29T09:59:19;9.90;99.90
39371;DHT22;25099;51.946;4.838;2022-12-29T10:04:17;9.90;99.90
39371;DHT22;25099;51.946;4.838;2022-12-29T10:06:53;9.90;99.90
39371;DHT22;25099;51.946;4.838;2022-12-29T10:12:26;9.90;99.90
39371;DHT22;25099;51.946;4.838;2022-12-29T10:15:18;10.00;99.90
39371;DHT22;25099;51.946;4.838;2022-12-29T10:18:15;10.00;99.90
39371;DHT22;25099;51.946;4.838;2022-12-29T10:20:58;10.00;99.90
39371;DHT22;25099;51.946;4.838;2022-12-29T10:23:40;10.00;99.90
39371;DHT22;25099;51.946;4.838;2022-12-29T10:26:14;10.00;99.90
39371;DHT22;25099;51.946;4.838;2022-12-29T10:31:23;10.00;99.90
39371;DHT22;25099;51.946;4.838;2022-12-29T10:33:53;10.00;99.90
39371;DHT22;25099;51.946;4.838;2022-12-29T10:36:29;10.00;99.90
39371;DHT22;25099;51.946;4.838;2022-12-29T10:39:13;10.00;99.90
39371;DHT22;25099;51.946;4.838;2022-12-29T10:44:25;10.00;99.90
39371;DHT22;25099;51.946;4.838;2022-12-29T10:47:06;9.90;99.90
39371;DHT22;25099;51.946;4.838;2022-12-29T10:49:38;10.00;99.90
39371;DHT22;25099;51.946;4.838;2022-12-29T10:52:06;9.60;99.90
39371;DHT22;25099;51.946;4.838;2022-12-29T10:54:40;10.10;99.90
39371;DHT22;25099;51.946;4.838;2022-12-29T10:57:18;10.00;99.90
39371;DHT22;25099;51.946;4.838;2022-12-29T10:59:46;10.00;99.90
39371;DHT22;25099;51.946;4.838;2022-12-29T11:07:34;9.90;99.90
39371;DHT22;25099;51.946;4.838;2022-12-29T11:10:28;9.90;99.90
39371;DHT22;25099;51.946;4.838;2022-12-29T11:12:59;9.80;99.90
39371;DHT22;25099;51.946;4.838;2022-12-29T11:15:25;9.80;99.90
39371;DHT22;25099;51.946;4.838;2022-12-29T11:17:53;9.70;99.90
39371;DHT22;25099;51.946;4.838;2022-12-29T11:22:59;9.80;99.90
39371;DHT22;25099;51.946;4.838;2022-12-29T11:25:28;10.00;99.90
39371;DHT22;25099;51.946;4.838;2022-12-29T11:28:01;10.10;99.90
39371;DHT22;25099;51.946;4.838;2022-12-29T11:30:30;10.10;99.90
39371;DHT22;25099;51.946;4.838;2022-12-29T11:32:57;11.00;99.90
39371;DHT22;25099;51.946;4.838;2022-12-29T11:35:35;10.20;99.90
39371;DHT22;25099;51.946;4.838;2022-12-29T11:38:02;10.30;99.90
39371;DHT22;25099;51.946;4.838;2022-12-29T11:40:29;10.40;99.90
39371;DHT22;25099;51.946;4.838;2022-12-29T11:42:58;10.50;99.90
39371;DHT22;25099;51.946;4.838;2022-12-29T11:45:28;10.60;99.90
39371;DHT22;25099;51.946;4.838;2022-12-29T11:47:57;10.70;99.90
39371;DHT22;25099;51.946;4.838;2022-12-29T11:50:32;10.70;99.90
39371;DHT22;25099;51.946;4.838;2022-12-29T11:53:04;10.70;99.90
39371;DHT22;25099;51.946;4.838;2022-12-29T11:55:31;10.70;99.90
39371;DHT22;25099;51.946;4.838;2022-12-29T11:58:00;10.70;99.90
39371;DHT22;25099;51.946;4.838;2022-12-29T12:00:28;10.90;99.90
39371;DHT22;25099;51.946;4.838;2022-12-29T12:03:04;10.80;99.90
39371;DHT22;25099;51.946;4.838;2022-12-29T12:05:53;10.90;99.90
39371;DHT22;25099;51.946;4.838;2022-12-29T12:11:18;10.80;99.90
39371;DHT22;25099;51.946;4.838;2022-12-29T12:16:52;10.80;99.90
39371;DHT22;25099;51.946;4.838;2022-12-29T12:22:07;10.70;99.90
39371;DHT22;25099;51.946;4.838;2022-12-29T12:24:46;10.70;99.90
39371;DHT22;25099;51.946;4.838;2022-12-29T12:27:43;10.70;99.90
39371;DHT22;25099;51.946;4.838;2022-12-29T12:30:15;10.60;99.90
39371;DHT22;25099;51.946;4.838;2022-12-29T12:33:03;10.70;99.90
39371;DHT22;25099;51.946;4.838;2022-12-29T12:35:49;10.70;99.90
39371;DHT22;25099;51.946;4.838;2022-12-29T12:41:11;10.80;99.90
39371;DHT22;25099;51.946;4.838;2022-12-29T12:43:43;10.80;99.90
39371;DHT22;25099;51.946;4.838;2022-12-29T12:46:36;10.90;99.90
39371;DHT22;25099;51.946;4.838;2022-12-29T13:00:39;10.80;99.90
39371;DHT22;25099;51.946;4.838;2022-12-29T13:06:18;10.80;99.90
39371;DHT22;25099;51.946;4.838;2022-12-29T13:11:46;10.70;99.90
39371;DHT22;25099;51.946;4.838;2022-12-29T13:14:42;10.70;99.90
39371;DHT22;25099;51.946;4.838;2022-12-29T13:22:45;10.70;99.90
39371;DHT22;25099;51.946;4.838;2022-12-29T13:27:54;10.70;99.90
39371;DHT22;25099;51.946;4.838;2022-12-29T13:30:26;10.60;99.90
39371;DHT22;25099;51.946;4.838;2022-12-29T13:38:39;10.50;99.90
39371;DHT22;25099;51.946;4.838;2022-12-29T13:41:08;10.40;99.90
39371;DHT22;25099;51.946;4.838;2022-12-29T13:43:38;10.30;99.90
39371;DHT22;25099;51.946;4.838;2022-12-29T13:46:14;10.20;99.90
39371;DHT22;25099;51.946;4.838;2022-12-29T13:48:51;10.10;99.90
39371;DHT22;25099;51.946;4.838;2022-12-29T13:51:21;10.00;99.90
39371;DHT22;25099;51.946;4.838;2022-12-29T13:54:07;10.00;99.90
39371;DHT22;25099;51.946;4.838;2022-12-29T13:56:49;9.90;99.90
39371;DHT22;25099;51.946;4.838;2022-12-29T14:02:21;9.70;99.90
39371;DHT22;25099;51.946;4.838;2022-12-29T14:05:26;9.70;99.90
39371;DHT22;25099;51.946;4.838;2022-12-29T14:08:17;9.60;99.90
39371;DHT22;25099;51.946;4.838;2022-12-29T14:10:51;9.60;99.90
39371;DHT22;25099;51.946;4.838;2022-12-29T14:13:20;9.60;99.90
39371;DHT22;25099;51.946;4.838;2022-12-29T14:15:52;9.50;99.90
39371;DHT22;25099;51.946;4.838;2022-12-29T14:18:24;9.60;99.90
39371;DHT22;25099;51.946;4.838;2022-12-29T14:20:54;9.50;99.90
39371;DHT22;25099;51.946;4.838;2022-12-29T14:28:33;9.60;99.90
39371;DHT22;25099;51.946;4.838;2022-12-29T14:31:45;9.50;99.90
39371;DHT22;25099;51.946;4.838;2022-12-29T14:36:39;9.60;99.90
39371;DHT22;25099;51.946;4.838;2022-12-29T14:39:37;9.70;99.90
39371;DHT22;25099;51.946;4.838;2022-12-29T14:44:45;9.70;99.90
39371;DHT22;25099;51.946;4.838;2022-12-29T14:47:37;9.80;99.90
39371;DHT22;25099;51.946;4.838;2022-12-29T14:50:05;9.70;99.90
39371;DHT22;25099;51.946;4.838;2022-12-29T14:52:31;9.70;99.90
39371;DHT22;25099;51.946;4.838;2022-12-29T14:55:28;9.80;99.90
39371;DHT22;25099;51.946;4.838;2022-12-29T14:57:49;9.70;99.90
39371;DHT22;25099;51.946;4.838;2022-12-29T15:00:18;9.70;99.90
39371;DHT22;25099;51.946;4.838;2022-12-29T15:03:38;9.70;99.90
39371;DHT22;25099;51.946;4.838;2022-12-29T15:05:45;9.70;99.90
39371;DHT22;25099;51.946;4.838;2022-12-29T15:08:17;9.60;99.90
39371;DHT22;25099;51.946;4.838;2022-12-29T15:10:49;9.70;99.90
39371;DHT22;25099;51.946;4.838;2022-12-29T15:13:24;9.70;99.90
39371;DHT22;25099;51.946;4.838;2022-12-29T15:15:51;9.70;99.90
39371;DHT22;25099;51.946;4.838;2022-12-29T15:18:29;9.70;99.90
39371;DHT22;25099;51.946;4.838;2022-12-29T15:21:00;9.70;99.90
39371;DHT22;25099;51.946;4.838;2022-12-29T15:23:27;9.70;99.90
39371;DHT22;25099;51.946;4.838;2022-12-29T15:28:27;9.70;99.90
39371;DHT22;25099;51.946;4.838;2022-12-29T15:31:05;9.70;99.90
39371;DHT22;25099;51.946;4.838;2022-12-29T15:33:31;9.70;99.90
39371;DHT22;25099;51.946;4.838;2022-12-29T15:36:03;10.50;99.90
39371;DHT22;25099;51.946;4.838;2022-12-29T15:38:30;9.60;99.90
39371;DHT22;25099;51.946;4.838;2022-12-29T15:41:30;9.70;99.90
39371;DHT22;25099;51.946;4.838;2022-12-29T15:46:23;9.60;99.90
39371;DHT22;25099;51.946;4.838;2022-12-29T15:48:49;9.60;99.90
39371;DHT22;25099;51.946;4.838;2022-12-29T15:51:18;9.60;99.90
39371;DHT22;25099;51.946;4.838;2022-12-29T15:53:47;9.50;99.90
39371;DHT22;25099;51.946;4.838;2022-12-29T15:56:14;9.50;99.90
39371;DHT22;25099;51.946;4.838;2022-12-29T15:58:42;9.40;99.90
39371;DHT22;25099;51.946;4.838;2022-12-29T16:01:29;9.40;99.90
39371;DHT22;25099;51.946;4.838;2022-12-29T16:03:56;9.30;99.90
39371;DHT22;25099;51.946;4.838;2022-12-29T16:06:38;9.30;99.90
39371;DHT22;25099;51.946;4.838;2022-12-29T16:09:53;9.30;99.90
39371;DHT22;25099;51.946;4.838;2022-12-29T16:11:59;9.20;99.90
39371;DHT22;25099;51.946;4.838;2022-12-29T16:14:50;9.10;99.90
39371;DHT22;25099;51.946;4.838;2022-12-29T16:17:20;9.10;99.90
39371;DHT22;25099;51.946;4.838;2022-12-29T16:20:01;9.10;99.90
39371;DHT22;25099;51.946;4.838;2022-12-29T16:22:37;9.10;99.90
39371;DHT22;25099;51.946;4.838;2022-12-29T16:25:20;9.00;99.90
39371;DHT22;25099;51.946;4.838;2022-12-29T16:27:49;9.00;99.90
39371;DHT22;25099;51.946;4.838;2022-12-29T16:30:24;8.90;99.90
39371;DHT22;25099;51.946;4.838;2022-12-29T16:32:53;8.90;99.90
39371;DHT22;25099;51.946;4.838;2022-12-29T16:35:21;8.80;99.90
39371;DHT22;25099;51.946;4.838;2022-12-29T16:37:49;8.80;99.90
39371;DHT22;25099;51.946;4.838;2022-12-29T16:40:31;8.90;99.90
39371;DHT22;25099;51.946;4.838;2022-12-29T16:43:01;8.80;99.90
39371;DHT22;25099;51.946;4.838;2022-12-29T16:51:01;8.70;99.90
39371;DHT22;25099;51.946;4.838;2022-12-29T16:53:35;8.70;99.90
39371;DHT22;25099;51.946;4.838;2022-12-29T16:56:08;8.70;99.90
39371;DHT22;25099;51.946;4.838;2022-12-29T16:58:38;8.70;99.90
39371;DHT22;25099;51.946;4.838;2022-12-29T17:01:06;8.70;99.90
39371;DHT22;25099;51.946;4.838;2022-12-29T17:03:45;9.40;99.90
39371;DHT22;25099;51.946;4.838;2022-12-29T17:06:16;8.60;99.90
39371;DHT22;25099;51.946;4.838;2022-12-29T17:08:44;8.60;99.90
39371;DHT22;25099;51.946;4.838;2022-12-29T17:11:25;8.50;99.90
39371;DHT22;25099;51.946;4.838;2022-12-29T17:14:47;8.50;99.90
39371;DHT22;25099;51.946;4.838;2022-12-29T17:17:30;8.50;99.90
39371;DHT22;25099;51.946;4.838;2022-12-29T17:19:59;8.50;99.90
39371;DHT22;25099;51.946;4.838;2022-12-29T17:22:28;8.50;99.90
39371;DHT22;25099;51.946;4.838;2022-12-29T17:24:55;9.40;99.90
39371;DHT22;25099;51.946;4.838;2022-12-29T17:27:35;8.40;99.90
39371;DHT22;25099;51.946;4.838;2022-12-29T17:30:14;8.40;99.90
39371;DHT22;25099;51.946;4.838;2022-12-29T17:32:42;8.40;99.90
39371;DHT22;25099;51.946;4.838;2022-12-29T17:35:15;8.40;99.90
39371;DHT22;25099;51.946;4.838;2022-12-29T17:37:41;8.40;99.90
39371;DHT22;25099;51.946;4.838;2022-12-29T17:40:12;8.40;99.90
39371;DHT22;25099;51.946;4.838;2022-12-29T17:42:42;8.40;99.90
39371;DHT22;25099;51.946;4.838;2022-12-29T17:45:14;8.30;99.90
39371;DHT22;25099;51.946;4.838;2022-12-29T17:47:40;8.30;99.90
39371;DHT22;25099;51.946;4.838;2022-12-29T17:50:11;8.30;99.90
39371;DHT22;25099;51.946;4.838;2022-12-29T17:52:37;8.30;99.90
39371;DHT22;25099;51.946;4.838;2022-12-29T17:55:02;8.30;99.90
39371;DHT22;25099;51.946;4.838;2022-12-29T17:57:28;8.30;99.90
39371;DHT22;25099;51.946;4.838;2022-12-29T17:59:53;8.30;99.90
39371;DHT22;25099;51.946;4.838;2022-12-29T18:02:30;8.30;99.90
39371;DHT22;25099;51.946;4.838;2022-12-29T18:04:57;8.20;99.90
39371;DHT22;25099;51.946;4.838;2022-12-29T18:07:28;8.20;99.90